sensor_id;sensor_type;location;lat;lon;timestamp;temperature;humidity
12268;DHT22;6196;48.398;11.736;2023-05-27T00:02:04;14.60;99.90
12268;DHT22;6196;48.398;11.736;2023-05-27T00:04:31;14.50;99.90
12268;DHT22;6196;48.398;11.736;2023-05-27T00:06:58;14.50;99.90
12268;DHT22;6196;48.398;11.736;2023-05-27T00:09:25;14.50;99.90
12268;DHT22;6196;48.398;11.736;2023-05-27T00:11:52;14.40;99.90
12268;DHT22;6196;48.398;11.736;2023-05-27T00:14:19;14.40;99.90
12268;DHT22;6196;48.398;11.736;2023-05-27T00:16:48;14.40;99.90
12268;DHT22;6196;48.398;11.736;2023-05-27T00:19:16;14.30;99.90
12268;DHT22;6196;48.398;11.736;2023-05-27T00:21:46;14.30;99.90
12268;DHT22;6196;48.398;11.736;2023-05-27T00:24:13;14.30;99.90
12268;DHT22;6196;48.398;11.736;2023-05-27T00:26:39;14.20;99.90
12268;DHT22;6196;48.398;11.736;2023-05-27T00:29:06;14.20;99.90
12268;DHT22;6196;48.398;11.736;2023-05-27T00:31:33;14.20;99.90
12268;DHT22;6196;48.398;11.736;2023-05-27T00:34:01;14.20;99.90
12268;DHT22;6196;48.398;11.736;2023-05-27T00:36:29;14.10;99.90
12268;DHT22;6196;48.398;11.736;2023-05-27T00:38:58;14.20;99.90
12268;DHT22;6196;48.398;11.736;2023-05-27T00:41:25;14.10;99.90
12268;DHT22;6196;48.398;11.736;2023-05-27T00:43:55;14.20;99.90
12268;DHT22;6196;48.398;11.736;2023-05-27T00:46:22;14.10;99.90
12268;DHT22;6196;48.398;11.736;2023-05-27T00:48:49;14.10;99.90
12268;DHT22;6196;48.398;11.736;2023-05-27T00:51:16;14.10;99.90
12268;DHT22;6196;48.398;11.736;2023-05-27T00:53:44;14.10;99.90
12268;DHT22;6196;48.398;11.736;2023-05-27T00:56:12;14.20;99.90
12268;DHT22;6196;48.398;11.736;2023-05-27T00:58:43;14.20;99.90
12268;DHT22;6196;48.398;11.736;2023-05-27T01:01:11;14.20;99.90
12268;DHT22;6196;48.398;11.736;2023-05-27T01:03:39;14.30;99.90
12268;DHT22;6196;48.398;11.736;2023-05-27T01:11:46;14.30;99.90
12268;DHT22;6196;48.398;11.736;2023-05-27T01:14:21;14.20;99.90
12268;DHT22;6196;48.398;11.736;2023-05-27T01:16:50;14.20;99.90
12268;DHT22;6196;48.398;11.736;2023-05-27T01:19:28;14.20;99.90
12268;DHT22;6196;48.398;11.736;2023-05-27T01:21:59;14.10;99.90
12268;DHT22;6196;48.398;11.736;2023-05-27T01:24:27;14.10;99.90
12268;DHT22;6196;48.398;11.736;2023-05-27T01:26:55;14.00;99.90
12268;DHT22;6196;48.398;11.736;2023-05-27T01:29:29;14.00;99.90
12268;DHT22;6196;48.398;11.736;2023-05-27T01:32:02;13.80;99.90
12268;DHT22;6196;48.398;11.736;2023-05-27T01:34:39;13.80;99.90
12268;DHT22;6196;48.398;11.736;2023-05-27T01:37:10;13.90;99.90
12268;DHT22;6196;48.398;11.736;2023-05-27T01:39:41;13.80;99.90
12268;DHT22;6196;48.398;11.736;2023-05-27T01:42:09;13.70;99.90
12268;DHT22;6196;48.398;11.736;2023-05-27T01:44:37;13.70;99.90
12268;DHT22;6196;48.398;11.736;2023-05-27T01:47:04;13.70;99.90
12268;DHT22;6196;48.398;11.736;2023-05-27T01:49:31;13.50;99.90
12268;DHT22;6196;48.398;11.736;2023-05-27T01:51:58;13.50;99.90
12268;DHT22;6196;48.398;11.736;2023-05-27T01:54:25;13.50;99.90
12268;DHT22;6196;48.398;11.736;2023-05-27T01:56:52;13.40;99.90
12268;DHT22;6196;48.398;11.736;2023-05-27T01:59:19;13.30;99.90
12268;DHT22;6196;48.398;11.736;2023-05-27T02:01:46;13.30;99.90
12268;DHT22;6196;48.398;11.736;2023-05-27T02:04:13;13.30;99.90
12268;DHT22;6196;48.398;11.736;2023-05-27T02:06:40;13.30;99.90
12268;DHT22;6196;48.398;11.736;2023-05-27T02:09:07;13.20;99.90
12268;DHT22;6196;48.398;11.736;2023-05-27T02:11:34;13.20;99.90
12268;DHT22;6196;48.398;11.736;2023-05-27T02:14:01;13.10;99.90
12268;DHT22;6196;48.398;11.736;2023-05-27T02:16:28;13.10;99.90
12268;DHT22;6196;48.398;11.736;2023-05-27T02:18:56;13.00;99.90
12268;DHT22;6196;48.398;11.736;2023-05-27T02:21:24;13.00;99.90
12268;DHT22;6196;48.398;11.736;2023-05-27T02:23:51;12.90;99.90
12268;DHT22;6196;48.398;11.736;2023-05-27T02:26:18;12.90;99.90
12268;DHT22;6196;48.398;11.736;2023-05-27T02:28:45;12.90;99.90
12268;DHT22;6196;48.398;11.736;2023-05-27T02:31:12;12.90;99.90
12268;DHT22;6196;48.398;11.736;2023-05-27T02:33:39;12.80;99.90
12268;DHT22;6196;48.398;11.736;2023-05-27T02:36:06;12.80;99.90
12268;DHT22;6196;48.398;11.736;2023-05-27T02:38:33;12.70;99.90
12268;DHT22;6196;48.398;11.736;2023-05-27T02:41:00;12.70;99.90
12268;DHT22;6196;48.398;11.736;2023-05-27T02:43:27;12.60;99.90
12268;DHT22;6196;48.398;11.736;2023-05-27T02:45:53;12.60;99.90
12268;DHT22;6196;48.398;11.736;2023-05-27T02:48:21;12.60;99.90
12268;DHT22;6196;48.398;11.736;2023-05-27T02:50:48;12.60;99.90
12268;DHT22;6196;48.398;11.736;2023-05-27T02:53:15;12.50;99.90
12268;DHT22;6196;48.398;11.736;2023-05-27T02:55:42;12.40;99.90
12268;DHT22;6196;48.398;11.736;2023-05-27T02:58:09;12.40;99.90
12268;DHT22;6196;48.398;11.736;2023-05-27T03:00:36;12.40;99.90
12268;DHT22;6196;48.398;11.736;2023-05-27T03:03:03;12.30;99.90
12268;DHT22;6196;48.398;11.736;2023-05-27T03:05:34;12.30;99.90
12268;DHT22;6196;48.398;11.736;2023-05-27T03:08:02;12.20;99.90
12268;DHT22;6196;48.398;11.736;2023-05-27T03:10:33;12.20;99.90
12268;DHT22;6196;48.398;11.736;2023-05-27T03:13:00;12.20;99.90
12268;DHT22;6196;48.398;11.736;2023-05-27T03:15:27;12.10;99.90
12268;DHT22;6196;48.398;11.736;2023-05-27T03:17:57;12.20;99.90
12268;DHT22;6196;48.398;11.736;2023-05-27T03:20:24;12.10;99.90
12268;DHT22;6196;48.398;11.736;2023-05-27T03:22:52;12.10;99.90
12268;DHT22;6196;48.398;11.736;2023-05-27T03:25:19;12.00;99.90
12268;DHT22;6196;48.398;11.736;2023-05-27T03:27:46;12.00;99.90
12268;DHT22;6196;48.398;11.736;2023-05-27T03:30:13;12.00;99.90
12268;DHT22;6196;48.398;11.736;2023-05-27T03:32:40;12.00;99.90
12268;DHT22;6196;48.398;11.736;2023-05-27T03:35:07;11.90;99.90
12268;DHT22;6196;48.398;11.736;2023-05-27T03:37:35;11.90;99.90
12268;DHT22;6196;48.398;11.736;2023-05-27T03:40:03;11.90;99.90
12268;DHT22;6196;48.398;11.736;2023-05-27T03:42:30;11.90;99.90
12268;DHT22;6196;48.398;11.736;2023-05-27T03:44:57;12.00;99.90
12268;DHT22;6196;48.398;11.736;2023-05-27T03:47:24;11.90;99.90
12268;DHT22;6196;48.398;11.736;2023-05-27T03:49:51;11.90;99.90
12268;DHT22;6196;48.398;11.736;2023-05-27T03:52:17;12.00;99.90
12268;DHT22;6196;48.398;11.736;2023-05-27T03:54:44;12.00;99.90
12268;DHT22;6196;48.398;11.736;2023-05-27T03:57:11;12.00;99.90
12268;DHT22;6196;48.398;11.736;2023-05-27T03:59:38;12.00;99.90
12268;DHT22;6196;48.398;11.736;2023-05-27T04:02:05;12.10;99.90
12268;DHT22;6196;48.398;11.736;2023-05-27T04:04:32;12.10;99.90
12268;DHT22;6196;48.398;11.736;2023-05-27T04:06:59;12.10;99.90
12268;DHT22;6196;48.398;11.736;2023-05-27T04:09:27;12.10;99.90
12268;DHT22;6196;48.398;11.736;2023-05-27T04:11:54;12.20;99.90
12268;DHT22;6196;48.398;11.736;2023-05-27T04:14:21;12.20;99.90
12268;DHT22;6196;48.398;11.736;2023-05-27T04:16:48;12.30;99.90
12268;DHT22;6196;48.398;11.736;2023-05-27T04:19:16;12.30;99.90
12268;DHT22;6196;48.398;11.736;2023-05-27T04:21:44;12.30;99.90
12268;DHT22;6196;48.398;11.736;2023-05-27T04:24:11;12.40;99.90
12268;DHT22;6196;48.398;11.736;2023-05-27T04:26:38;12.40;99.90
12268;DHT22;6196;48.398;11.736;2023-05-27T04:29:07;12.50;99.90
12268;DHT22;6196;48.398;11.736;2023-05-27T04:31:39;12.50;99.90
12268;DHT22;6196;48.398;11.736;2023-05-27T04:34:06;12.60;99.90
12268;DHT22;6196;48.398;11.736;2023-05-27T04:36:34;12.70;99.90
12268;DHT22;6196;48.398;11.736;2023-05-27T04:39:01;12.70;99.90
12268;DHT22;6196;48.398;11.736;2023-05-27T04:41:30;12.80;99.90
12268;DHT22;6196;48.398;11.736;2023-05-27T04:43:59;12.90;99.90
12268;DHT22;6196;48.398;11.736;2023-05-27T04:46:28;13.00;99.90
12268;DHT22;6196;48.398;11.736;2023-05-27T04:48:55;13.00;99.90
12268;DHT22;6196;48.398;11.736;2023-05-27T04:51:22;13.00;99.90
12268;DHT22;6196;48.398;11.736;2023-05-27T04:53:49;13.00;99.90
12268;DHT22;6196;48.398;11.736;2023-05-27T04:56:16;13.10;99.90
12268;DHT22;6196;48.398;11.736;2023-05-27T04:58:44;13.20;99.90
12268;DHT22;6196;48.398;11.736;2023-05-27T05:01:15;13.40;99.90
12268;DHT22;6196;48.398;11.736;2023-05-27T05:03:48;13.30;99.90
12268;DHT22;6196;48.398;11.736;2023-05-27T05:06:20;13.40;99.90
12268;DHT22;6196;48.398;11.736;2023-05-27T05:08:48;13.40;99.90
12268;DHT22;6196;48.398;11.736;2023-05-27T05:11:15;13.50;99.90
12268;DHT22;6196;48.398;11.736;2023-05-27T05:13:42;13.50;99.90
12268;DHT22;6196;48.398;11.736;2023-05-27T05:16:09;13.70;99.90
12268;DHT22;6196;48.398;11.736;2023-05-27T05:18:36;13.80;99.90
12268;DHT22;6196;48.398;11.736;2023-05-27T05:21:03;13.80;99.90
12268;DHT22;6196;48.398;11.736;2023-05-27T05:23:30;13.90;99.90
12268;DHT22;6196;48.398;11.736;2023-05-27T05:25:57;14.00;99.90
12268;DHT22;6196;48.398;11.736;2023-05-27T05:28:33;14.00;99.90
12268;DHT22;6196;48.398;11.736;2023-05-27T05:31:01;14.10;99.90
12268;DHT22;6196;48.398;11.736;2023-05-27T05:33:28;14.30;99.90
12268;DHT22;6196;48.398;11.736;2023-05-27T05:35:55;14.40;99.90
12268;DHT22;6196;48.398;11.736;2023-05-27T05:38:22;14.50;99.90
12268;DHT22;6196;48.398;11.736;2023-05-27T05:40:49;14.60;99.90
12268;DHT22;6196;48.398;11.736;2023-05-27T05:43:19;14.80;99.90
12268;DHT22;6196;48.398;11.736;2023-05-27T05:45:47;14.90;99.90
12268;DHT22;6196;48.398;11.736;2023-05-27T05:48:14;15.00;99.90
12268;DHT22;6196;48.398;11.736;2023-05-27T05:50:41;15.20;99.90
12268;DHT22;6196;48.398;11.736;2023-05-27T05:53:10;15.50;99.90
12268;DHT22;6196;48.398;11.736;2023-05-27T05:55:37;15.70;99.90
12268;DHT22;6196;48.398;11.736;2023-05-27T05:58:04;15.80;99.90
12268;DHT22;6196;48.398;11.736;2023-05-27T06:00:31;16.10;99.90
12268;DHT22;6196;48.398;11.736;2023-05-27T06:02:58;16.20;99.90
12268;DHT22;6196;48.398;11.736;2023-05-27T06:05:25;16.50;99.90
12268;DHT22;6196;48.398;11.736;2023-05-27T06:07:53;16.80;99.90
12268;DHT22;6196;48.398;11.736;2023-05-27T06:10:20;17.00;99.90
12268;DHT22;6196;48.398;11.736;2023-05-27T06:12:47;17.40;99.90
12268;DHT22;6196;48.398;11.736;2023-05-27T06:15:14;17.50;99.90
12268;DHT22;6196;48.398;11.736;2023-05-27T06:17:42;17.50;99.90
12268;DHT22;6196;48.398;11.736;2023-05-27T06:20:10;17.70;99.90
12268;DHT22;6196;48.398;11.736;2023-05-27T06:22:37;17.70;99.90
12268;DHT22;6196;48.398;11.736;2023-05-27T06:25:05;18.10;99.90
12268;DHT22;6196;48.398;11.736;2023-05-27T06:27:32;18.30;99.90
12268;DHT22;6196;48.398;11.736;2023-05-27T06:29:59;18.30;99.90
12268;DHT22;6196;48.398;11.736;2023-05-27T06:32:26;18.60;99.90
12268;DHT22;6196;48.398;11.736;2023-05-27T06:34:53;18.70;99.90
12268;DHT22;6196;48.398;11.736;2023-05-27T06:37:20;18.80;99.90
12268;DHT22;6196;48.398;11.736;2023-05-27T06:39:47;18.70;99.90
12268;DHT22;6196;48.398;11.736;2023-05-27T06:42:14;18.90;99.90
12268;DHT22;6196;48.398;11.736;2023-05-27T06:44:41;19.10;99.90
12268;DHT22;6196;48.398;11.736;2023-05-27T06:47:08;19.40;99.90
12268;DHT22;6196;48.398;11.736;2023-05-27T06:49:35;19.50;99.90
12268;DHT22;6196;48.398;11.736;2023-05-27T06:52:03;19.60;99.90
12268;DHT22;6196;48.398;11.736;2023-05-27T06:54:33;19.90;99.90
12268;DHT22;6196;48.398;11.736;2023-05-27T06:57:00;19.90;99.90
12268;DHT22;6196;48.398;11.736;2023-05-27T06:59:28;20.10;99.90
12268;DHT22;6196;48.398;11.736;2023-05-27T07:01:55;20.20;99.90
12268;DHT22;6196;48.398;11.736;2023-05-27T07:04:25;20.20;99.90
12268;DHT22;6196;48.398;11.736;2023-05-27T07:06:52;20.30;99.90
12268;DHT22;6196;48.398;11.736;2023-05-27T07:09:19;20.30;99.90
12268;DHT22;6196;48.398;11.736;2023-05-27T07:11:47;20.40;99.90
12268;DHT22;6196;48.398;11.736;2023-05-27T07:14:14;20.70;99.90
12268;DHT22;6196;48.398;11.736;2023-05-27T07:16:41;20.70;99.90
12268;DHT22;6196;48.398;11.736;2023-05-27T07:19:08;20.70;99.90
12268;DHT22;6196;48.398;11.736;2023-05-27T07:21:35;20.70;99.90
12268;DHT22;6196;48.398;11.736;2023-05-27T07:24:03;21.00;99.90
12268;DHT22;6196;48.398;11.736;2023-05-27T07:26:31;20.90;99.90
12268;DHT22;6196;48.398;11.736;2023-05-27T07:28:59;20.80;99.90
12268;DHT22;6196;48.398;11.736;2023-05-27T07:31:28;20.80;99.90
12268;DHT22;6196;48.398;11.736;2023-05-27T07:33:55;21.10;99.90
12268;DHT22;6196;48.398;11.736;2023-05-27T07:36:22;21.30;99.90
12268;DHT22;6196;48.398;11.736;2023-05-27T07:38:49;21.30;99.90
12268;DHT22;6196;48.398;11.736;2023-05-27T07:41:16;21.30;99.90
12268;DHT22;6196;48.398;11.736;2023-05-27T07:43:43;21.60;99.90
12268;DHT22;6196;48.398;11.736;2023-05-27T07:46:10;21.70;99.90
12268;DHT22;6196;48.398;11.736;2023-05-27T07:48:37;21.90;99.90
12268;DHT22;6196;48.398;11.736;2023-05-27T07:51:04;22.10;99.90
12268;DHT22;6196;48.398;11.736;2023-05-27T07:53:31;22.20;99.90
12268;DHT22;6196;48.398;11.736;2023-05-27T07:55:58;22.10;99.90
12268;DHT22;6196;48.398;11.736;2023-05-27T07:58:25;22.30;99.90
12268;DHT22;6196;48.398;11.736;2023-05-27T08:00:52;22.20;99.90
12268;DHT22;6196;48.398;11.736;2023-05-27T08:03:19;21.90;99.90
12268;DHT22;6196;48.398;11.736;2023-05-27T08:05:47;22.30;99.90
12268;DHT22;6196;48.398;11.736;2023-05-27T08:08:14;22.30;99.90
12268;DHT22;6196;48.398;11.736;2023-05-27T08:10:41;22.50;99.50
12268;DHT22;6196;48.398;11.736;2023-05-27T08:13:10;22.30;99.90
12268;DHT22;6196;48.398;11.736;2023-05-27T08:15:37;22.30;99.90
12268;DHT22;6196;48.398;11.736;2023-05-27T08:18:04;21.90;99.90
12268;DHT22;6196;48.398;11.736;2023-05-27T08:20:31;21.50;99.90
12268;DHT22;6196;48.398;11.736;2023-05-27T08:22:58;21.20;99.90
12268;DHT22;6196;48.398;11.736;2023-05-27T08:25:25;21.60;99.90
12268;DHT22;6196;48.398;11.736;2023-05-27T08:27:53;22.30;99.90
12268;DHT22;6196;48.398;11.736;2023-05-27T08:30:21;22.70;99.90
12268;DHT22;6196;48.398;11.736;2023-05-27T08:32:48;22.70;99.90
12268;DHT22;6196;48.398;11.736;2023-05-27T08:35:18;23.00;99.20
12268;DHT22;6196;48.398;11.736;2023-05-27T08:37:45;22.90;99.50
12268;DHT22;6196;48.398;11.736;2023-05-27T08:40:14;23.00;99.90
12268;DHT22;6196;48.398;11.736;2023-05-27T08:42:43;22.50;99.90
12268;DHT22;6196;48.398;11.736;2023-05-27T08:45:11;22.90;99.90
12268;DHT22;6196;48.398;11.736;2023-05-27T08:47:39;23.20;99.90
12268;DHT22;6196;48.398;11.736;2023-05-27T08:50:07;23.50;99.90
12268;DHT22;6196;48.398;11.736;2023-05-27T08:52:39;23.50;99.90
12268;DHT22;6196;48.398;11.736;2023-05-27T08:55:15;22.90;99.90
12268;DHT22;6196;48.398;11.736;2023-05-27T08:57:51;22.60;99.90
12268;DHT22;6196;48.398;11.736;2023-05-27T09:00:21;22.90;99.90
12268;DHT22;6196;48.398;11.736;2023-05-27T09:02:48;23.20;99.90
12268;DHT22;6196;48.398;11.736;2023-05-27T09:05:16;23.40;99.90
12268;DHT22;6196;48.398;11.736;2023-05-27T09:07:44;23.10;99.90
12268;DHT22;6196;48.398;11.736;2023-05-27T09:10:11;22.90;99.10
12268;DHT22;6196;48.398;11.736;2023-05-27T09:12:42;22.80;98.20
12268;DHT22;6196;48.398;11.736;2023-05-27T09:15:12;23.00;99.90
12268;DHT22;6196;48.398;11.736;2023-05-27T09:17:43;23.00;98.40
12268;DHT22;6196;48.398;11.736;2023-05-27T09:20:11;22.80;99.60
12268;DHT22;6196;48.398;11.736;2023-05-27T09:22:40;23.00;99.10
12268;DHT22;6196;48.398;11.736;2023-05-27T09:25:08;23.30;99.50
12268;DHT22;6196;48.398;11.736;2023-05-27T09:27:38;23.60;99.90
12268;DHT22;6196;48.398;11.736;2023-05-27T09:30:09;23.80;98.80
12268;DHT22;6196;48.398;11.736;2023-05-27T09:32:36;23.80;99.10
12268;DHT22;6196;48.398;11.736;2023-05-27T09:35:05;24.10;99.10
12268;DHT22;6196;48.398;11.736;2023-05-27T09:37:34;24.10;99.90
12268;DHT22;6196;48.398;11.736;2023-05-27T09:40:07;24.40;98.50
12268;DHT22;6196;48.398;11.736;2023-05-27T09:42:47;24.70;99.90
12268;DHT22;6196;48.398;11.736;2023-05-27T09:45:17;24.90;98.30
12268;DHT22;6196;48.398;11.736;2023-05-27T09:47:50;24.70;98.30
12268;DHT22;6196;48.398;11.736;2023-05-27T09:50:20;25.00;95.90
12268;DHT22;6196;48.398;11.736;2023-05-27T09:52:49;25.00;97.70
12268;DHT22;6196;48.398;11.736;2023-05-27T09:55:31;24.70;95.50
12268;DHT22;6196;48.398;11.736;2023-05-27T09:58:00;24.10;95.00
12268;DHT22;6196;48.398;11.736;2023-05-27T10:00:28;24.30;96.70
12268;DHT22;6196;48.398;11.736;2023-05-27T10:02:57;24.00;97.20
12268;DHT22;6196;48.398;11.736;2023-05-27T10:05:27;24.00;96.20
12268;DHT22;6196;48.398;11.736;2023-05-27T10:07:54;24.20;97.20
12268;DHT22;6196;48.398;11.736;2023-05-27T10:10:41;24.30;95.60
12268;DHT22;6196;48.398;11.736;2023-05-27T10:13:08;23.60;94.70
12268;DHT22;6196;48.398;11.736;2023-05-27T10:15:36;23.10;95.50
12268;DHT22;6196;48.398;11.736;2023-05-27T10:18:06;23.20;96.30
12268;DHT22;6196;48.398;11.736;2023-05-27T10:20:42;23.40;95.30
12268;DHT22;6196;48.398;11.736;2023-05-27T10:23:13;23.40;96.80
12268;DHT22;6196;48.398;11.736;2023-05-27T10:26:10;23.80;98.70
12268;DHT22;6196;48.398;11.736;2023-05-27T10:28:39;24.10;98.60
12268;DHT22;6196;48.398;11.736;2023-05-27T10:31:11;24.50;97.70
12268;DHT22;6196;48.398;11.736;2023-05-27T10:33:46;24.50;97.00
12268;DHT22;6196;48.398;11.736;2023-05-27T10:36:16;24.70;98.20
12268;DHT22;6196;48.398;11.736;2023-05-27T10:38:55;25.30;96.60
12268;DHT22;6196;48.398;11.736;2023-05-27T10:41:23;25.50;95.90
12268;DHT22;6196;48.398;11.736;2023-05-27T10:43:57;25.90;95.00
12268;DHT22;6196;48.398;11.736;2023-05-27T10:46:26;25.60;93.30
12268;DHT22;6196;48.398;11.736;2023-05-27T10:48:53;25.10;93.90
12268;DHT22;6196;48.398;11.736;2023-05-27T10:51:31;25.10;93.60
12268;DHT22;6196;48.398;11.736;2023-05-27T10:54:03;24.60;93.40
12268;DHT22;6196;48.398;11.736;2023-05-27T10:56:52;24.40;94.20
12268;DHT22;6196;48.398;11.736;2023-05-27T10:59:21;24.90;94.40
12268;DHT22;6196;48.398;11.736;2023-05-27T11:01:52;25.10;95.00
12268;DHT22;6196;48.398;11.736;2023-05-27T11:04:20;25.50;94.90
12268;DHT22;6196;48.398;11.736;2023-05-27T11:06:59;25.70;95.00
12268;DHT22;6196;48.398;11.736;2023-05-27T11:09:30;25.50;94.80
12268;DHT22;6196;48.398;11.736;2023-05-27T11:12:02;25.80;94.90
12268;DHT22;6196;48.398;11.736;2023-05-27T11:14:30;26.30;92.20
12268;DHT22;6196;48.398;11.736;2023-05-27T11:16:57;26.50;94.30
12268;DHT22;6196;48.398;11.736;2023-05-27T11:19:24;26.30;93.90
12268;DHT22;6196;48.398;11.736;2023-05-27T11:21:51;26.40;92.00
12268;DHT22;6196;48.398;11.736;2023-05-27T11:24:19;26.40;91.50
12268;DHT22;6196;48.398;11.736;2023-05-27T11:26:47;26.10;92.40
12268;DHT22;6196;48.398;11.736;2023-05-27T11:29:14;26.10;91.30
12268;DHT22;6196;48.398;11.736;2023-05-27T11:31:45;25.80;91.10
12268;DHT22;6196;48.398;11.736;2023-05-27T11:34:14;25.20;88.60
12268;DHT22;6196;48.398;11.736;2023-05-27T11:36:44;24.80;90.50
12268;DHT22;6196;48.398;11.736;2023-05-27T11:39:12;25.00;92.20
12268;DHT22;6196;48.398;11.736;2023-05-27T11:41:52;25.40;90.20
12268;DHT22;6196;48.398;11.736;2023-05-27T11:44:21;25.90;90.90
12268;DHT22;6196;48.398;11.736;2023-05-27T11:46:58;26.30;88.10
12268;DHT22;6196;48.398;11.736;2023-05-27T11:49:29;26.40;88.50
12268;DHT22;6196;48.398;11.736;2023-05-27T11:51:56;26.60;89.60
12268;DHT22;6196;48.398;11.736;2023-05-27T11:54:28;26.50;88.40
12268;DHT22;6196;48.398;11.736;2023-05-27T11:56:58;26.40;88.90
12268;DHT22;6196;48.398;11.736;2023-05-27T11:59:25;26.40;91.00
12268;DHT22;6196;48.398;11.736;2023-05-27T12:01:52;26.50;90.40
12268;DHT22;6196;48.398;11.736;2023-05-27T12:04:20;26.80;88.90
12268;DHT22;6196;48.398;11.736;2023-05-27T12:06:47;26.50;84.60
12268;DHT22;6196;48.398;11.736;2023-05-27T12:09:14;26.00;82.90
12268;DHT22;6196;48.398;11.736;2023-05-27T12:11:42;26.00;86.40
12268;DHT22;6196;48.398;11.736;2023-05-27T12:14:09;26.30;87.00
12268;DHT22;6196;48.398;11.736;2023-05-27T12:16:36;26.20;83.70
12268;DHT22;6196;48.398;11.736;2023-05-27T12:19:03;26.00;84.80
12268;DHT22;6196;48.398;11.736;2023-05-27T12:21:30;25.40;83.60
12268;DHT22;6196;48.398;11.736;2023-05-27T12:23:57;25.60;87.00
12268;DHT22;6196;48.398;11.736;2023-05-27T12:26:24;26.00;85.10
12268;DHT22;6196;48.398;11.736;2023-05-27T12:28:52;25.60;84.80
12268;DHT22;6196;48.398;11.736;2023-05-27T12:31:19;25.80;85.00
12268;DHT22;6196;48.398;11.736;2023-05-27T12:33:46;26.20;88.20
12268;DHT22;6196;48.398;11.736;2023-05-27T12:36:13;26.30;86.60
12268;DHT22;6196;48.398;11.736;2023-05-27T12:38:40;26.00;82.30
12268;DHT22;6196;48.398;11.736;2023-05-27T12:41:07;26.10;86.20
12268;DHT22;6196;48.398;11.736;2023-05-27T12:43:34;25.80;81.20
12268;DHT22;6196;48.398;11.736;2023-05-27T12:46:01;25.50;85.40
12268;DHT22;6196;48.398;11.736;2023-05-27T12:48:28;25.90;85.00
12268;DHT22;6196;48.398;11.736;2023-05-27T12:50:55;26.30;87.80
12268;DHT22;6196;48.398;11.736;2023-05-27T12:53:22;26.40;85.00
12268;DHT22;6196;48.398;11.736;2023-05-27T12:55:49;26.50;82.90
12268;DHT22;6196;48.398;11.736;2023-05-27T12:58:17;26.50;81.60
12268;DHT22;6196;48.398;11.736;2023-05-27T13:00:44;26.50;81.20
12268;DHT22;6196;48.398;11.736;2023-05-27T13:03:11;25.60;81.10
12268;DHT22;6196;48.398;11.736;2023-05-27T13:05:38;25.50;86.10
12268;DHT22;6196;48.398;11.736;2023-05-27T13:08:05;25.70;83.40
12268;DHT22;6196;48.398;11.736;2023-05-27T13:10:33;25.90;84.00
12268;DHT22;6196;48.398;11.736;2023-05-27T13:13:01;26.00;84.10
12268;DHT22;6196;48.398;11.736;2023-05-27T13:15:29;25.60;82.60
12268;DHT22;6196;48.398;11.736;2023-05-27T13:17:56;25.60;83.90
12268;DHT22;6196;48.398;11.736;2023-05-27T13:20:26;25.50;81.60
12268;DHT22;6196;48.398;11.736;2023-05-27T13:22:56;25.40;81.70
12268;DHT22;6196;48.398;11.736;2023-05-27T13:25:28;25.10;82.70
12268;DHT22;6196;48.398;11.736;2023-05-27T13:27:56;25.10;83.40
12268;DHT22;6196;48.398;11.736;2023-05-27T13:30:23;25.10;83.70
12268;DHT22;6196;48.398;11.736;2023-05-27T13:32:50;25.10;84.30
12268;DHT22;6196;48.398;11.736;2023-05-27T13:35:18;25.50;80.70
12268;DHT22;6196;48.398;11.736;2023-05-27T13:37:45;25.70;82.60
12268;DHT22;6196;48.398;11.736;2023-05-27T13:40:13;25.80;82.00
12268;DHT22;6196;48.398;11.736;2023-05-27T13:42:40;25.70;83.00
12268;DHT22;6196;48.398;11.736;2023-05-27T13:45:08;26.20;83.70
12268;DHT22;6196;48.398;11.736;2023-05-27T13:47:36;26.50;80.90
12268;DHT22;6196;48.398;11.736;2023-05-27T13:50:07;26.00;81.30
12268;DHT22;6196;48.398;11.736;2023-05-27T13:52:35;25.50;81.80
12268;DHT22;6196;48.398;11.736;2023-05-27T13:55:03;25.70;82.70
12268;DHT22;6196;48.398;11.736;2023-05-27T13:57:30;25.60;79.50
12268;DHT22;6196;48.398;11.736;2023-05-27T13:59:57;25.40;81.70
12268;DHT22;6196;48.398;11.736;2023-05-27T14:02:24;25.70;81.30
12268;DHT22;6196;48.398;11.736;2023-05-27T14:04:51;26.10;79.40
12268;DHT22;6196;48.398;11.736;2023-05-27T14:07:18;26.50;83.80
12268;DHT22;6196;48.398;11.736;2023-05-27T14:09:46;26.50;77.30
12268;DHT22;6196;48.398;11.736;2023-05-27T14:12:12;26.50;82.10
12268;DHT22;6196;48.398;11.736;2023-05-27T14:14:39;26.80;79.80
12268;DHT22;6196;48.398;11.736;2023-05-27T14:17:07;26.80;81.00
12268;DHT22;6196;48.398;11.736;2023-05-27T14:19:34;27.40;86.30
12268;DHT22;6196;48.398;11.736;2023-05-27T14:22:02;27.50;82.00
12268;DHT22;6196;48.398;11.736;2023-05-27T14:24:28;28.10;81.70
12268;DHT22;6196;48.398;11.736;2023-05-27T14:26:56;28.20;76.90
12268;DHT22;6196;48.398;11.736;2023-05-27T14:29:24;28.40;76.90
12268;DHT22;6196;48.398;11.736;2023-05-27T14:31:51;28.00;78.70
12268;DHT22;6196;48.398;11.736;2023-05-27T14:34:18;27.90;73.10
12268;DHT22;6196;48.398;11.736;2023-05-27T14:36:45;27.30;79.00
12268;DHT22;6196;48.398;11.736;2023-05-27T14:39:12;27.30;80.30
12268;DHT22;6196;48.398;11.736;2023-05-27T14:41:39;26.90;80.90
12268;DHT22;6196;48.398;11.736;2023-05-27T14:44:06;27.30;81.70
12268;DHT22;6196;48.398;11.736;2023-05-27T14:46:33;27.50;81.10
12268;DHT22;6196;48.398;11.736;2023-05-27T14:49:00;27.50;78.30
12268;DHT22;6196;48.398;11.736;2023-05-27T14:51:30;27.60;78.70
12268;DHT22;6196;48.398;11.736;2023-05-27T14:53:57;27.70;79.00
12268;DHT22;6196;48.398;11.736;2023-05-27T14:56:24;28.30;79.60
12268;DHT22;6196;48.398;11.736;2023-05-27T14:58:51;27.50;80.40
12268;DHT22;6196;48.398;11.736;2023-05-27T15:01:18;27.70;78.00
12268;DHT22;6196;48.398;11.736;2023-05-27T15:03:45;27.70;81.00
12268;DHT22;6196;48.398;11.736;2023-05-27T15:06:12;27.60;79.50
12268;DHT22;6196;48.398;11.736;2023-05-27T15:08:40;27.60;82.20
12268;DHT22;6196;48.398;11.736;2023-05-27T15:11:07;27.80;81.10
12268;DHT22;6196;48.398;11.736;2023-05-27T15:13:34;27.30;82.90
12268;DHT22;6196;48.398;11.736;2023-05-27T15:16:01;27.50;83.80
12268;DHT22;6196;48.398;11.736;2023-05-27T15:18:28;27.90;82.80
12268;DHT22;6196;48.398;11.736;2023-05-27T15:20:55;28.00;79.90
12268;DHT22;6196;48.398;11.736;2023-05-27T15:23:22;27.60;81.40
12268;DHT22;6196;48.398;11.736;2023-05-27T15:25:49;27.40;83.50
12268;DHT22;6196;48.398;11.736;2023-05-27T15:28:17;27.10;83.50
12268;DHT22;6196;48.398;11.736;2023-05-27T15:30:44;26.50;82.60
12268;DHT22;6196;48.398;11.736;2023-05-27T15:33:11;26.90;84.00
12268;DHT22;6196;48.398;11.736;2023-05-27T15:35:38;26.80;82.80
12268;DHT22;6196;48.398;11.736;2023-05-27T15:38:05;26.80;83.20
12268;DHT22;6196;48.398;11.736;2023-05-27T15:40:32;27.20;82.80
12268;DHT22;6196;48.398;11.736;2023-05-27T15:42:59;27.30;82.10